Hauptseite
METAR-TAF:

METAR-TAF

Flughäfen :

Topcliffe, England

Breite: 54-12N, Länge: 001-23W, Höhe: 28 m

Beobachtung

Neuester Wetterbericht von vor 57 Minuten, um 12:50 UTC
Wind 9 kt aus Nord
Temperatur 17°C
Luftfeuchtigkeit 48%
Luftdruck 1037 hPa
Sichtweite 10 km oder mehr

METAR: EGXZ 271250Z AUTO 36009KT 9999 FEW130/// 17/06 Q1037

Zeit: 14:47 (13:47 UTC)


TAF: fehlend

Wetterbeobachtungen und Prognosen von mehr als 4000 Flughäfen (METAR und TAF Bericht).

Die verfügbaren Stationen werden durch gelbe und rote Markierungen auf der Karte dargestellt.

Führen Sie die Maus auf sie, um den Namen der Station zu sehen.

Darauf klicken, um die Beobachtung von Wetterbeobachtungen und Prognosen zu sehen.

Um die Karte zu ändern : klicken Sie auf den grünen Tasten mit einem schwarzen Kreuz Zum Vergrößern, auf den grünen Button mit einem Gedankenstrich zu verkleinern, oder auf die grünen Pfeile für benachbarte Karten.


METAR-TAF: